sensor_id;sensor_type;location;lat;lon;timestamp;temperature;humidity
19180;DHT22;9722;48.754;8.868;2023-02-01T00:01:33;3.90;98.20
19180;DHT22;9722;48.754;8.868;2023-02-01T00:04:54;3.90;98.30
19180;DHT22;9722;48.754;8.868;2023-02-01T00:08:14;3.90;98.80
19180;DHT22;9722;48.754;8.868;2023-02-01T00:11:35;3.90;98.60
19180;DHT22;9722;48.754;8.868;2023-02-01T00:14:55;3.90;98.60
19180;DHT22;9722;48.754;8.868;2023-02-01T00:18:16;4.00;98.60
19180;DHT22;9722;48.754;8.868;2023-02-01T00:21:36;4.00;98.50
19180;DHT22;9722;48.754;8.868;2023-02-01T00:24:57;4.00;98.50
19180;DHT22;9722;48.754;8.868;2023-02-01T00:28:17;4.00;98.50
19180;DHT22;9722;48.754;8.868;2023-02-01T00:31:38;4.00;98.60
19180;DHT22;9722;48.754;8.868;2023-02-01T00:34:59;4.10;98.60
19180;DHT22;9722;48.754;8.868;2023-02-01T00:38:19;4.00;98.60
19180;DHT22;9722;48.754;8.868;2023-02-01T00:41:40;4.00;98.50
19180;DHT22;9722;48.754;8.868;2023-02-01T00:45:00;4.00;98.60
19180;DHT22;9722;48.754;8.868;2023-02-01T00:48:21;4.00;98.60
19180;DHT22;9722;48.754;8.868;2023-02-01T00:51:41;3.90;98.60
19180;DHT22;9722;48.754;8.868;2023-02-01T00:55:02;3.90;98.70
19180;DHT22;9722;48.754;8.868;2023-02-01T00:58:23;3.90;98.80
19180;DHT22;9722;48.754;8.868;2023-02-01T01:01:45;3.90;98.80
19180;DHT22;9722;48.754;8.868;2023-02-01T01:05:06;4.00;98.80
19180;DHT22;9722;48.754;8.868;2023-02-01T01:08:27;4.00;98.80
19180;DHT22;9722;48.754;8.868;2023-02-01T01:11:47;4.00;98.70
19180;DHT22;9722;48.754;8.868;2023-02-01T01:15:08;4.00;98.70
19180;DHT22;9722;48.754;8.868;2023-02-01T01:18:30;4.00;98.60
19180;DHT22;9722;48.754;8.868;2023-02-01T01:21:50;4.00;98.70
19180;DHT22;9722;48.754;8.868;2023-02-01T01:25:11;4.00;98.70
19180;DHT22;9722;48.754;8.868;2023-02-01T01:28:31;4.00;98.70
19180;DHT22;9722;48.754;8.868;2023-02-01T01:31:52;4.00;98.80
19180;DHT22;9722;48.754;8.868;2023-02-01T01:35:12;4.00;98.70
19180;DHT22;9722;48.754;8.868;2023-02-01T01:38:33;4.00;98.80
19180;DHT22;9722;48.754;8.868;2023-02-01T01:41:54;4.00;98.80
19180;DHT22;9722;48.754;8.868;2023-02-01T01:45:33;4.00;98.90
19180;DHT22;9722;48.754;8.868;2023-02-01T01:52:20;3.90;98.90
19180;DHT22;9722;48.754;8.868;2023-02-01T01:55:43;3.90;99.00
19180;DHT22;9722;48.754;8.868;2023-02-01T01:59:04;3.90;99.10
19180;DHT22;9722;48.754;8.868;2023-02-01T02:02:25;4.00;99.10
19180;DHT22;9722;48.754;8.868;2023-02-01T02:05:49;4.00;99.00
19180;DHT22;9722;48.754;8.868;2023-02-01T02:09:10;4.10;99.00
19180;DHT22;9722;48.754;8.868;2023-02-01T02:12:31;4.10;98.90
19180;DHT22;9722;48.754;8.868;2023-02-01T02:20:11;4.10;98.70
19180;DHT22;9722;48.754;8.868;2023-02-01T02:27:36;4.10;98.50
19180;DHT22;9722;48.754;8.868;2023-02-01T02:31:51;4.10;98.60
19180;DHT22;9722;48.754;8.868;2023-02-01T02:35:30;4.00;98.60
19180;DHT22;9722;48.754;8.868;2023-02-01T02:46:39;4.00;98.80
19180;DHT22;9722;48.754;8.868;2023-02-01T02:50:27;4.10;98.90
19180;DHT22;9722;48.754;8.868;2023-02-01T02:54:13;4.00;98.80
19180;DHT22;9722;48.754;8.868;2023-02-01T02:57:55;4.10;98.90
19180;DHT22;9722;48.754;8.868;2023-02-01T03:01:34;4.10;98.90
19180;DHT22;9722;48.754;8.868;2023-02-01T03:05:14;4.00;98.80
19180;DHT22;9722;48.754;8.868;2023-02-01T03:08:36;4.00;99.00
19180;DHT22;9722;48.754;8.868;2023-02-01T03:12:00;4.00;99.00
19180;DHT22;9722;48.754;8.868;2023-02-01T03:16:00;4.00;99.10
19180;DHT22;9722;48.754;8.868;2023-02-01T03:19:25;4.10;99.20
19180;DHT22;9722;48.754;8.868;2023-02-01T03:22:48;4.10;99.20
19180;DHT22;9722;48.754;8.868;2023-02-01T03:26:13;4.20;99.20
19180;DHT22;9722;48.754;8.868;2023-02-01T03:29:44;4.30;99.10
19180;DHT22;9722;48.754;8.868;2023-02-01T03:33:09;4.30;99.00
19180;DHT22;9722;48.754;8.868;2023-02-01T03:36:46;4.30;98.90
19180;DHT22;9722;48.754;8.868;2023-02-01T03:40:10;4.40;98.90
19180;DHT22;9722;48.754;8.868;2023-02-01T03:43:38;4.40;98.90
19180;DHT22;9722;48.754;8.868;2023-02-01T03:47:16;4.40;98.90
19180;DHT22;9722;48.754;8.868;2023-02-01T03:50:46;4.50;98.80
19180;DHT22;9722;48.754;8.868;2023-02-01T03:54:12;4.50;98.70
19180;DHT22;9722;48.754;8.868;2023-02-01T03:57:38;4.60;98.60
19180;DHT22;9722;48.754;8.868;2023-02-01T04:00:59;4.60;98.50
19180;DHT22;9722;48.754;8.868;2023-02-01T04:04:20;4.60;98.30
19180;DHT22;9722;48.754;8.868;2023-02-01T04:07:41;4.60;98.10
19180;DHT22;9722;48.754;8.868;2023-02-01T04:11:01;4.60;97.90
19180;DHT22;9722;48.754;8.868;2023-02-01T04:14:22;4.60;97.90
19180;DHT22;9722;48.754;8.868;2023-02-01T04:17:42;4.70;97.80
19180;DHT22;9722;48.754;8.868;2023-02-01T04:21:03;4.70;97.80
19180;DHT22;9722;48.754;8.868;2023-02-01T04:24:24;4.70;97.60
19180;DHT22;9722;48.754;8.868;2023-02-01T04:27:44;4.70;97.50
19180;DHT22;9722;48.754;8.868;2023-02-01T04:31:05;4.70;97.40
19180;DHT22;9722;48.754;8.868;2023-02-01T04:34:25;4.80;97.30
19180;DHT22;9722;48.754;8.868;2023-02-01T04:37:46;4.80;97.30
19180;DHT22;9722;48.754;8.868;2023-02-01T04:41:07;4.80;97.10
19180;DHT22;9722;48.754;8.868;2023-02-01T04:44:27;4.80;97.10
19180;DHT22;9722;48.754;8.868;2023-02-01T04:47:48;4.80;97.40
19180;DHT22;9722;48.754;8.868;2023-02-01T04:51:09;4.90;97.00
19180;DHT22;9722;48.754;8.868;2023-02-01T04:54:30;4.90;96.80
19180;DHT22;9722;48.754;8.868;2023-02-01T04:57:50;4.90;96.80
19180;DHT22;9722;48.754;8.868;2023-02-01T05:01:11;4.90;96.80
19180;DHT22;9722;48.754;8.868;2023-02-01T05:04:31;4.90;96.80
19180;DHT22;9722;48.754;8.868;2023-02-01T05:07:52;4.90;96.80
19180;DHT22;9722;48.754;8.868;2023-02-01T05:11:12;4.90;96.80
19180;DHT22;9722;48.754;8.868;2023-02-01T05:14:51;4.90;96.90
19180;DHT22;9722;48.754;8.868;2023-02-01T05:18:12;4.90;97.00
19180;DHT22;9722;48.754;8.868;2023-02-01T05:21:33;4.90;97.00
19180;DHT22;9722;48.754;8.868;2023-02-01T05:24:53;5.00;97.00
19180;DHT22;9722;48.754;8.868;2023-02-01T05:28:14;5.00;96.90
19180;DHT22;9722;48.754;8.868;2023-02-01T05:31:35;5.10;96.90
19180;DHT22;9722;48.754;8.868;2023-02-01T05:34:55;5.00;96.70
19180;DHT22;9722;48.754;8.868;2023-02-01T05:38:16;5.10;96.60
19180;DHT22;9722;48.754;8.868;2023-02-01T05:41:36;5.10;96.60
19180;DHT22;9722;48.754;8.868;2023-02-01T05:44:57;5.10;96.60
19180;DHT22;9722;48.754;8.868;2023-02-01T05:48:18;5.10;96.70
19180;DHT22;9722;48.754;8.868;2023-02-01T05:51:38;5.10;96.60
19180;DHT22;9722;48.754;8.868;2023-02-01T05:54:59;5.10;97.00
19180;DHT22;9722;48.754;8.868;2023-02-01T05:58:19;5.10;96.60
19180;DHT22;9722;48.754;8.868;2023-02-01T06:01:40;5.10;96.60
19180;DHT22;9722;48.754;8.868;2023-02-01T06:05:00;5.10;96.60
19180;DHT22;9722;48.754;8.868;2023-02-01T06:08:21;5.10;96.60
19180;DHT22;9722;48.754;8.868;2023-02-01T06:11:41;5.10;96.70
19180;DHT22;9722;48.754;8.868;2023-02-01T06:15:02;5.10;96.70
19180;DHT22;9722;48.754;8.868;2023-02-01T06:18:23;5.10;96.70
19180;DHT22;9722;48.754;8.868;2023-02-01T06:21:44;5.10;96.60
19180;DHT22;9722;48.754;8.868;2023-02-01T06:25:06;5.10;96.40
19180;DHT22;9722;48.754;8.868;2023-02-01T06:28:28;5.20;96.40
19180;DHT22;9722;48.754;8.868;2023-02-01T06:31:49;5.20;96.30
19180;DHT22;9722;48.754;8.868;2023-02-01T06:35:10;5.20;96.20
19180;DHT22;9722;48.754;8.868;2023-02-01T06:38:36;5.20;96.20
19180;DHT22;9722;48.754;8.868;2023-02-01T06:41:56;5.30;96.10
19180;DHT22;9722;48.754;8.868;2023-02-01T06:45:17;5.30;96.10
19180;DHT22;9722;48.754;8.868;2023-02-01T06:48:37;5.30;96.10
19180;DHT22;9722;48.754;8.868;2023-02-01T06:51:58;5.30;96.00
19180;DHT22;9722;48.754;8.868;2023-02-01T06:55:20;5.30;95.80
19180;DHT22;9722;48.754;8.868;2023-02-01T06:58:40;5.30;95.60
19180;DHT22;9722;48.754;8.868;2023-02-01T07:02:01;5.30;95.40
19180;DHT22;9722;48.754;8.868;2023-02-01T07:05:22;5.20;95.10
19180;DHT22;9722;48.754;8.868;2023-02-01T07:08:43;5.20;95.00
19180;DHT22;9722;48.754;8.868;2023-02-01T07:12:03;5.20;95.10
19180;DHT22;9722;48.754;8.868;2023-02-01T07:15:24;5.20;94.50
19180;DHT22;9722;48.754;8.868;2023-02-01T07:18:45;5.20;94.50
19180;DHT22;9722;48.754;8.868;2023-02-01T07:22:05;5.30;94.40
19180;DHT22;9722;48.754;8.868;2023-02-01T07:25:26;5.30;94.10
19180;DHT22;9722;48.754;8.868;2023-02-01T07:28:46;5.30;94.00
19180;DHT22;9722;48.754;8.868;2023-02-01T07:32:08;5.30;94.00
19180;DHT22;9722;48.754;8.868;2023-02-01T07:35:29;5.40;93.80
19180;DHT22;9722;48.754;8.868;2023-02-01T07:38:49;5.40;93.70
19180;DHT22;9722;48.754;8.868;2023-02-01T07:42:12;5.50;93.70
19180;DHT22;9722;48.754;8.868;2023-02-01T07:45:32;5.50;93.60
19180;DHT22;9722;48.754;8.868;2023-02-01T07:48:53;5.60;93.50
19180;DHT22;9722;48.754;8.868;2023-02-01T07:52:13;5.60;93.30
19180;DHT22;9722;48.754;8.868;2023-02-01T07:55:39;5.70;93.10
19180;DHT22;9722;48.754;8.868;2023-02-01T07:59:01;5.70;93.00
19180;DHT22;9722;48.754;8.868;2023-02-01T08:02:21;5.70;92.80
19180;DHT22;9722;48.754;8.868;2023-02-01T08:05:42;5.80;92.60
19180;DHT22;9722;48.754;8.868;2023-02-01T08:09:03;5.80;92.40
19180;DHT22;9722;48.754;8.868;2023-02-01T08:12:24;5.90;92.20
19180;DHT22;9722;48.754;8.868;2023-02-01T08:15:45;5.90;92.00
19180;DHT22;9722;48.754;8.868;2023-02-01T08:19:05;5.90;91.90
19180;DHT22;9722;48.754;8.868;2023-02-01T08:22:26;6.00;91.90
19180;DHT22;9722;48.754;8.868;2023-02-01T08:25:46;6.00;91.50
19180;DHT22;9722;48.754;8.868;2023-02-01T08:29:08;6.00;91.40
19180;DHT22;9722;48.754;8.868;2023-02-01T08:32:29;6.10;91.40
19180;DHT22;9722;48.754;8.868;2023-02-01T08:35:49;6.10;91.00
19180;DHT22;9722;48.754;8.868;2023-02-01T08:39:10;6.20;90.70
19180;DHT22;9722;48.754;8.868;2023-02-01T08:42:31;6.30;90.60
19180;DHT22;9722;48.754;8.868;2023-02-01T08:46:11;6.50;90.40
19180;DHT22;9722;48.754;8.868;2023-02-01T08:49:32;6.60;90.10
19180;DHT22;9722;48.754;8.868;2023-02-01T08:52:53;6.70;89.80
19180;DHT22;9722;48.754;8.868;2023-02-01T08:56:16;6.70;89.40
19180;DHT22;9722;48.754;8.868;2023-02-01T08:59:36;6.70;89.20
19180;DHT22;9722;48.754;8.868;2023-02-01T09:02:57;6.80;88.70
19180;DHT22;9722;48.754;8.868;2023-02-01T09:06:17;6.70;88.30
19180;DHT22;9722;48.754;8.868;2023-02-01T09:09:38;6.60;88.20
19180;DHT22;9722;48.754;8.868;2023-02-01T09:12:58;6.60;88.10
19180;DHT22;9722;48.754;8.868;2023-02-01T09:16:19;6.50;88.00
19180;DHT22;9722;48.754;8.868;2023-02-01T09:19:39;6.60;88.30
19180;DHT22;9722;48.754;8.868;2023-02-01T09:23:00;6.40;88.30
19180;DHT22;9722;48.754;8.868;2023-02-01T09:26:20;6.40;88.30
19180;DHT22;9722;48.754;8.868;2023-02-01T09:29:41;6.30;87.80
19180;DHT22;9722;48.754;8.868;2023-02-01T09:33:02;6.30;87.70
19180;DHT22;9722;48.754;8.868;2023-02-01T09:36:23;6.30;88.20
19180;DHT22;9722;48.754;8.868;2023-02-01T09:39:44;6.40;88.20
19180;DHT22;9722;48.754;8.868;2023-02-01T09:43:21;6.70;87.40
19180;DHT22;9722;48.754;8.868;2023-02-01T09:46:43;6.90;85.60
19180;DHT22;9722;48.754;8.868;2023-02-01T09:50:11;7.10;84.60
19180;DHT22;9722;48.754;8.868;2023-02-01T09:53:42;7.20;83.10
19180;DHT22;9722;48.754;8.868;2023-02-01T09:57:17;7.30;82.90
19180;DHT22;9722;48.754;8.868;2023-02-01T10:00:39;7.50;81.60
19180;DHT22;9722;48.754;8.868;2023-02-01T10:04:04;7.60;80.20
19180;DHT22;9722;48.754;8.868;2023-02-01T10:07:43;7.60;79.20
19180;DHT22;9722;48.754;8.868;2023-02-01T10:11:23;7.50;78.80
19180;DHT22;9722;48.754;8.868;2023-02-01T10:26:05;7.50;78.70
19180;DHT22;9722;48.754;8.868;2023-02-01T10:29:34;7.40;78.00
19180;DHT22;9722;48.754;8.868;2023-02-01T10:33:07;7.40;78.20
19180;DHT22;9722;48.754;8.868;2023-02-01T10:36:41;7.40;78.00
19180;DHT22;9722;48.754;8.868;2023-02-01T10:43:33;7.40;76.90
19180;DHT22;9722;48.754;8.868;2023-02-01T10:46:54;7.30;76.20
19180;DHT22;9722;48.754;8.868;2023-02-01T10:53:55;7.40;76.80
19180;DHT22;9722;48.754;8.868;2023-02-01T10:57:25;7.50;76.00
19180;DHT22;9722;48.754;8.868;2023-02-01T11:00:49;7.80;75.70
19180;DHT22;9722;48.754;8.868;2023-02-01T11:04:18;7.90;75.60
19180;DHT22;9722;48.754;8.868;2023-02-01T11:07:46;8.00;74.90
19180;DHT22;9722;48.754;8.868;2023-02-01T11:11:07;8.10;74.40
19180;DHT22;9722;48.754;8.868;2023-02-01T11:14:39;8.10;74.30
19180;DHT22;9722;48.754;8.868;2023-02-01T11:18:16;8.20;73.60
19180;DHT22;9722;48.754;8.868;2023-02-01T11:21:37;8.60;73.20
19180;DHT22;9722;48.754;8.868;2023-02-01T11:24:59;8.80;72.20
19180;DHT22;9722;48.754;8.868;2023-02-01T11:28:25;8.90;71.30
19180;DHT22;9722;48.754;8.868;2023-02-01T11:31:46;8.70;70.20
19180;DHT22;9722;48.754;8.868;2023-02-01T11:35:07;8.60;70.40
19180;DHT22;9722;48.754;8.868;2023-02-01T11:38:33;8.40;70.40
19180;DHT22;9722;48.754;8.868;2023-02-01T11:45:28;8.50;70.30
19180;DHT22;9722;48.754;8.868;2023-02-01T11:48:49;8.50;70.40
19180;DHT22;9722;48.754;8.868;2023-02-01T11:52:56;8.50;69.70
19180;DHT22;9722;48.754;8.868;2023-02-01T12:00:29;8.30;69.60
19180;DHT22;9722;48.754;8.868;2023-02-01T12:04:04;8.40;68.30
19180;DHT22;9722;48.754;8.868;2023-02-01T12:07:49;8.20;68.30
19180;DHT22;9722;48.754;8.868;2023-02-01T12:19:00;7.80;68.80
19180;DHT22;9722;48.754;8.868;2023-02-01T12:22:32;7.70;69.30
19180;DHT22;9722;48.754;8.868;2023-02-01T12:26:39;7.50;69.90
19180;DHT22;9722;48.754;8.868;2023-02-01T12:52:44;6.90;71.70
19180;DHT22;9722;48.754;8.868;2023-02-01T12:56:09;6.90;72.00
19180;DHT22;9722;48.754;8.868;2023-02-01T12:59:38;6.90;72.30
19180;DHT22;9722;48.754;8.868;2023-02-01T13:06:52;6.80;72.60
19180;DHT22;9722;48.754;8.868;2023-02-01T13:10:41;6.80;72.60
19180;DHT22;9722;48.754;8.868;2023-02-01T13:17:51;6.70;72.90
19180;DHT22;9722;48.754;8.868;2023-02-01T13:21:21;6.80;73.20
19180;DHT22;9722;48.754;8.868;2023-02-01T13:24:47;6.80;73.30
19180;DHT22;9722;48.754;8.868;2023-02-01T13:28:20;6.80;73.30
19180;DHT22;9722;48.754;8.868;2023-02-01T13:39:02;6.60;73.60
19180;DHT22;9722;48.754;8.868;2023-02-01T13:42:34;6.60;73.90
19180;DHT22;9722;48.754;8.868;2023-02-01T13:45:57;6.70;74.00
19180;DHT22;9722;48.754;8.868;2023-02-01T13:49:26;6.70;73.70
19180;DHT22;9722;48.754;8.868;2023-02-01T13:53:13;6.70;73.80
19180;DHT22;9722;48.754;8.868;2023-02-01T13:56:43;6.70;73.70
19180;DHT22;9722;48.754;8.868;2023-02-01T14:00:28;6.70;73.70
19180;DHT22;9722;48.754;8.868;2023-02-01T14:03:58;6.80;73.90
19180;DHT22;9722;48.754;8.868;2023-02-01T14:07:21;6.80;74.60
19180;DHT22;9722;48.754;8.868;2023-02-01T14:17:36;6.90;73.90
19180;DHT22;9722;48.754;8.868;2023-02-01T14:24:36;7.00;73.60
19180;DHT22;9722;48.754;8.868;2023-02-01T14:27:57;7.00;73.60
19180;DHT22;9722;48.754;8.868;2023-02-01T14:31:37;6.90;73.60
19180;DHT22;9722;48.754;8.868;2023-02-01T14:35:01;6.90;73.70
19180;DHT22;9722;48.754;8.868;2023-02-01T14:38:22;6.90;73.80
19180;DHT22;9722;48.754;8.868;2023-02-01T14:41:44;6.90;74.00
19180;DHT22;9722;48.754;8.868;2023-02-01T14:48:44;6.90;74.20
19180;DHT22;9722;48.754;8.868;2023-02-01T14:52:11;6.90;74.20
19180;DHT22;9722;48.754;8.868;2023-02-01T14:55:43;6.80;74.00
19180;DHT22;9722;48.754;8.868;2023-02-01T14:59:14;6.80;74.20
19180;DHT22;9722;48.754;8.868;2023-02-01T15:02:37;6.70;74.30
19180;DHT22;9722;48.754;8.868;2023-02-01T15:05:59;6.60;74.30
19180;DHT22;9722;48.754;8.868;2023-02-01T15:09:28;6.60;74.60
19180;DHT22;9722;48.754;8.868;2023-02-01T15:12:49;6.60;74.90
19180;DHT22;9722;48.754;8.868;2023-02-01T15:16:13;6.60;74.90
19180;DHT22;9722;48.754;8.868;2023-02-01T15:19:34;6.60;76.10
19180;DHT22;9722;48.754;8.868;2023-02-01T15:22:58;6.80;75.40
19180;DHT22;9722;48.754;8.868;2023-02-01T15:26:30;7.00;74.70
19180;DHT22;9722;48.754;8.868;2023-02-01T15:29:51;7.10;73.90
19180;DHT22;9722;48.754;8.868;2023-02-01T15:33:18;7.10;73.20
19180;DHT22;9722;48.754;8.868;2023-02-01T15:36:40;7.10;72.50
19180;DHT22;9722;48.754;8.868;2023-02-01T15:43:38;7.10;72.50
19180;DHT22;9722;48.754;8.868;2023-02-01T15:47:04;7.00;71.80
19180;DHT22;9722;48.754;8.868;2023-02-01T15:50:33;7.00;72.10
19180;DHT22;9722;48.754;8.868;2023-02-01T15:54:02;6.90;72.10
19180;DHT22;9722;48.754;8.868;2023-02-01T15:57:40;6.90;72.10
19180;DHT22;9722;48.754;8.868;2023-02-01T16:01:04;6.80;72.20
19180;DHT22;9722;48.754;8.868;2023-02-01T16:04:28;6.70;72.00
19180;DHT22;9722;48.754;8.868;2023-02-01T16:08:03;6.60;72.40
19180;DHT22;9722;48.754;8.868;2023-02-01T16:12:01;6.50;72.90
19180;DHT22;9722;48.754;8.868;2023-02-01T16:15:21;6.40;73.10
19180;DHT22;9722;48.754;8.868;2023-02-01T16:18:41;6.30;73.00
19180;DHT22;9722;48.754;8.868;2023-02-01T16:22:02;6.30;73.50
19180;DHT22;9722;48.754;8.868;2023-02-01T16:25:22;6.10;73.50
19180;DHT22;9722;48.754;8.868;2023-02-01T16:28:43;6.10;73.80
19180;DHT22;9722;48.754;8.868;2023-02-01T16:32:04;6.00;73.80
19180;DHT22;9722;48.754;8.868;2023-02-01T16:35:30;6.00;73.90
19180;DHT22;9722;48.754;8.868;2023-02-01T16:38:56;6.00;74.00
19180;DHT22;9722;48.754;8.868;2023-02-01T16:42:16;6.00;73.80
19180;DHT22;9722;48.754;8.868;2023-02-01T16:45:37;6.00;73.70
19180;DHT22;9722;48.754;8.868;2023-02-01T16:48:59;6.00;73.50
19180;DHT22;9722;48.754;8.868;2023-02-01T16:52:25;6.10;73.60
19180;DHT22;9722;48.754;8.868;2023-02-01T16:55:46;6.10;73.60
19180;DHT22;9722;48.754;8.868;2023-02-01T16:59:09;6.10;73.50
19180;DHT22;9722;48.754;8.868;2023-02-01T17:02:30;6.10;73.50
19180;DHT22;9722;48.754;8.868;2023-02-01T17:05:54;6.20;73.50
19180;DHT22;9722;48.754;8.868;2023-02-01T17:09:16;6.10;73.20
19180;DHT22;9722;48.754;8.868;2023-02-01T17:12:36;6.20;73.50
19180;DHT22;9722;48.754;8.868;2023-02-01T17:16:02;6.10;73.50
19180;DHT22;9722;48.754;8.868;2023-02-01T17:19:23;6.10;73.80
19180;DHT22;9722;48.754;8.868;2023-02-01T17:22:44;6.10;73.90
19180;DHT22;9722;48.754;8.868;2023-02-01T17:26:09;6.10;74.10
19180;DHT22;9722;48.754;8.868;2023-02-01T17:29:29;6.10;74.40
19180;DHT22;9722;48.754;8.868;2023-02-01T17:32:50;6.10;74.40
19180;DHT22;9722;48.754;8.868;2023-02-01T17:36:16;6.10;74.40
19180;DHT22;9722;48.754;8.868;2023-02-01T17:39:37;6.10;74.50
19180;DHT22;9722;48.754;8.868;2023-02-01T17:43:20;6.20;74.60
19180;DHT22;9722;48.754;8.868;2023-02-01T17:46:40;6.10;74.70
19180;DHT22;9722;48.754;8.868;2023-02-01T17:50:01;6.10;75.00
19180;DHT22;9722;48.754;8.868;2023-02-01T17:53:22;6.00;75.30
19180;DHT22;9722;48.754;8.868;2023-02-01T17:56:43;6.00;75.60
19180;DHT22;9722;48.754;8.868;2023-02-01T18:00:04;5.90;75.80
19180;DHT22;9722;48.754;8.868;2023-02-01T18:03:27;5.90;76.10
19180;DHT22;9722;48.754;8.868;2023-02-01T18:06:49;5.90;76.10
19180;DHT22;9722;48.754;8.868;2023-02-01T18:10:10;5.90;76.20
19180;DHT22;9722;48.754;8.868;2023-02-01T18:13:31;6.00;76.30
19180;DHT22;9722;48.754;8.868;2023-02-01T18:16:52;6.00;77.10
19180;DHT22;9722;48.754;8.868;2023-02-01T18:20:18;6.00;76.20
19180;DHT22;9722;48.754;8.868;2023-02-01T18:23:38;5.90;76.10
19180;DHT22;9722;48.754;8.868;2023-02-01T18:26:59;5.90;76.30
19180;DHT22;9722;48.754;8.868;2023-02-01T18:30:24;5.80;76.40
19180;DHT22;9722;48.754;8.868;2023-02-01T18:33:44;5.80;76.50
19180;DHT22;9722;48.754;8.868;2023-02-01T18:37:05;5.70;76.60
19180;DHT22;9722;48.754;8.868;2023-02-01T18:40:29;5.70;76.80
19180;DHT22;9722;48.754;8.868;2023-02-01T18:43:52;5.70;76.90
19180;DHT22;9722;48.754;8.868;2023-02-01T18:47:12;5.70;76.90
19180;DHT22;9722;48.754;8.868;2023-02-01T18:50:35;5.80;77.00
19180;DHT22;9722;48.754;8.868;2023-02-01T18:53:56;5.80;77.00
19180;DHT22;9722;48.754;8.868;2023-02-01T18:57:16;5.90;77.10
19180;DHT22;9722;48.754;8.868;2023-02-01T19:00:37;5.90;76.70
19180;DHT22;9722;48.754;8.868;2023-02-01T19:03:57;5.90;76.50
19180;DHT22;9722;48.754;8.868;2023-02-01T19:07:19;6.00;76.50
19180;DHT22;9722;48.754;8.868;2023-02-01T19:10:42;6.00;76.30
19180;DHT22;9722;48.754;8.868;2023-02-01T19:14:03;6.00;76.40
19180;DHT22;9722;48.754;8.868;2023-02-01T19:17:24;6.00;76.30
19180;DHT22;9722;48.754;8.868;2023-02-01T19:20:46;6.10;76.30
19180;DHT22;9722;48.754;8.868;2023-02-01T19:24:09;6.10;76.30
19180;DHT22;9722;48.754;8.868;2023-02-01T19:27:30;6.10;76.20
19180;DHT22;9722;48.754;8.868;2023-02-01T19:31:00;6.10;76.30
19180;DHT22;9722;48.754;8.868;2023-02-01T19:34:21;6.10;76.40
19180;DHT22;9722;48.754;8.868;2023-02-01T19:37:42;6.00;76.40
19180;DHT22;9722;48.754;8.868;2023-02-01T19:41:03;6.10;76.50
19180;DHT22;9722;48.754;8.868;2023-02-01T19:44:24;6.00;76.50
19180;DHT22;9722;48.754;8.868;2023-02-01T19:47:45;6.00;76.60
19180;DHT22;9722;48.754;8.868;2023-02-01T19:51:05;6.00;76.70
19180;DHT22;9722;48.754;8.868;2023-02-01T19:54:27;6.00;76.80
19180;DHT22;9722;48.754;8.868;2023-02-01T19:57:47;6.00;77.00
19180;DHT22;9722;48.754;8.868;2023-02-01T20:01:08;6.00;77.20
19180;DHT22;9722;48.754;8.868;2023-02-01T20:04:28;6.00;77.20
19180;DHT22;9722;48.754;8.868;2023-02-01T20:07:49;6.00;77.20
19180;DHT22;9722;48.754;8.868;2023-02-01T20:11:09;6.00;77.20
19180;DHT22;9722;48.754;8.868;2023-02-01T20:14:30;6.00;77.20
19180;DHT22;9722;48.754;8.868;2023-02-01T20:17:50;6.10;77.60
19180;DHT22;9722;48.754;8.868;2023-02-01T20:21:11;6.10;77.60
19180;DHT22;9722;48.754;8.868;2023-02-01T20:24:32;6.20;77.60
19180;DHT22;9722;48.754;8.868;2023-02-01T20:27:53;6.20;77.70
19180;DHT22;9722;48.754;8.868;2023-02-01T20:31:14;6.20;77.80
19180;DHT22;9722;48.754;8.868;2023-02-01T20:34:35;6.20;77.90
19180;DHT22;9722;48.754;8.868;2023-02-01T20:37:55;6.30;77.80
19180;DHT22;9722;48.754;8.868;2023-02-01T20:41:18;6.30;77.90
19180;DHT22;9722;48.754;8.868;2023-02-01T20:44:39;6.30;77.90
19180;DHT22;9722;48.754;8.868;2023-02-01T20:47:59;6.30;77.70
19180;DHT22;9722;48.754;8.868;2023-02-01T20:51:20;6.30;77.50
19180;DHT22;9722;48.754;8.868;2023-02-01T20:54:41;6.40;77.60
19180;DHT22;9722;48.754;8.868;2023-02-01T20:58:01;6.40;77.60
19180;DHT22;9722;48.754;8.868;2023-02-01T21:01:22;6.40;77.60
19180;DHT22;9722;48.754;8.868;2023-02-01T21:04:42;6.40;77.60
19180;DHT22;9722;48.754;8.868;2023-02-01T21:08:03;6.40;77.60
19180;DHT22;9722;48.754;8.868;2023-02-01T21:11:23;6.40;77.60
19180;DHT22;9722;48.754;8.868;2023-02-01T21:14:44;6.40;78.30
19180;DHT22;9722;48.754;8.868;2023-02-01T21:18:05;6.40;77.00
19180;DHT22;9722;48.754;8.868;2023-02-01T21:21:28;6.40;76.70
19180;DHT22;9722;48.754;8.868;2023-02-01T21:24:49;6.40;76.60
19180;DHT22;9722;48.754;8.868;2023-02-01T21:28:11;6.40;76.60
19180;DHT22;9722;48.754;8.868;2023-02-01T21:31:32;6.40;76.60
19180;DHT22;9722;48.754;8.868;2023-02-01T21:34:52;6.50;76.60
19180;DHT22;9722;48.754;8.868;2023-02-01T21:38:13;6.50;76.60
19180;DHT22;9722;48.754;8.868;2023-02-01T21:41:35;6.50;76.50
19180;DHT22;9722;48.754;8.868;2023-02-01T21:45:15;6.50;76.50
19180;DHT22;9722;48.754;8.868;2023-02-01T21:48:36;6.50;76.50
19180;DHT22;9722;48.754;8.868;2023-02-01T21:52:00;6.50;76.50
19180;DHT22;9722;48.754;8.868;2023-02-01T21:55:21;6.50;76.60
19180;DHT22;9722;48.754;8.868;2023-02-01T21:58:41;6.50;76.60
19180;DHT22;9722;48.754;8.868;2023-02-01T22:02:02;6.50;77.20
19180;DHT22;9722;48.754;8.868;2023-02-01T22:05:23;6.50;76.60
19180;DHT22;9722;48.754;8.868;2023-02-01T22:08:44;6.50;76.90
19180;DHT22;9722;48.754;8.868;2023-02-01T22:12:05;6.50;77.60
19180;DHT22;9722;48.754;8.868;2023-02-01T22:15:27;6.50;77.70
19180;DHT22;9722;48.754;8.868;2023-02-01T22:18:49;6.50;78.50
19180;DHT22;9722;48.754;8.868;2023-02-01T22:22:10;6.40;78.90
19180;DHT22;9722;48.754;8.868;2023-02-01T22:25:31;6.40;79.40
19180;DHT22;9722;48.754;8.868;2023-02-01T22:28:52;6.30;79.80
19180;DHT22;9722;48.754;8.868;2023-02-01T22:32:12;6.30;80.40
19180;DHT22;9722;48.754;8.868;2023-02-01T22:35:33;6.30;80.40
19180;DHT22;9722;48.754;8.868;2023-02-01T22:38:53;6.30;80.70
19180;DHT22;9722;48.754;8.868;2023-02-01T22:42:14;6.20;80.80
19180;DHT22;9722;48.754;8.868;2023-02-01T22:45:36;6.20;80.90
19180;DHT22;9722;48.754;8.868;2023-02-01T22:48:57;6.20;81.10
19180;DHT22;9722;48.754;8.868;2023-02-01T22:52:18;6.20;81.20
19180;DHT22;9722;48.754;8.868;2023-02-01T22:55:39;6.20;81.10
19180;DHT22;9722;48.754;8.868;2023-02-01T22:59:05;6.20;80.90
19180;DHT22;9722;48.754;8.868;2023-02-01T23:02:26;6.20;80.80
19180;DHT22;9722;48.754;8.868;2023-02-01T23:05:46;6.10;80.80
19180;DHT22;9722;48.754;8.868;2023-02-01T23:09:14;6.20;80.90
19180;DHT22;9722;48.754;8.868;2023-02-01T23:12:35;6.10;80.90
19180;DHT22;9722;48.754;8.868;2023-02-01T23:15:55;6.10;80.90
19180;DHT22;9722;48.754;8.868;2023-02-01T23:19:17;6.10;80.90
19180;DHT22;9722;48.754;8.868;2023-02-01T23:22:40;6.10;81.80
19180;DHT22;9722;48.754;8.868;2023-02-01T23:26:02;6.10;81.60
19180;DHT22;9722;48.754;8.868;2023-02-01T23:29:23;6.10;82.20
19180;DHT22;9722;48.754;8.868;2023-02-01T23:32:43;6.00;82.70
19180;DHT22;9722;48.754;8.868;2023-02-01T23:36:06;6.00;83.30
19180;DHT22;9722;48.754;8.868;2023-02-01T23:39:27;6.00;83.70
19180;DHT22;9722;48.754;8.868;2023-02-01T23:42:47;5.90;84.00
19180;DHT22;9722;48.754;8.868;2023-02-01T23:46:38;5.90;84.30
19180;DHT22;9722;48.754;8.868;2023-02-01T23:50:00;5.90;84.60
19180;DHT22;9722;48.754;8.868;2023-02-01T23:53:21;5.90;84.70
19180;DHT22;9722;48.754;8.868;2023-02-01T23:56:43;5.90;84.70
